createdAt,value
2019-06-10T00:02:50.805Z,100193.15
2019-06-10T00:07:56.218Z,100177.28
2019-06-10T00:13:07.318Z,100172.34
2019-06-10T00:18:34.039Z,100168.64
2019-06-10T00:23:21.228Z,100159.59
2019-06-10T00:28:27.921Z,100149.18
2019-06-10T00:33:33.091Z,100147.88
2019-06-10T00:38:41.037Z,100156.31
2019-06-10T00:43:45.277Z,100146.44
2019-06-10T00:48:52.335Z,100138.23
2019-06-10T00:53:57.387Z,100136.53
2019-06-10T00:59:04.098Z,100124.86
2019-06-10T01:04:12.415Z,100115.23
2019-06-10T01:09:16.137Z,100113.73
2019-06-10T01:14:21.714Z,100108.88
2019-06-10T01:19:26.887Z,100114.02
2019-06-10T01:24:31.977Z,100107.62
2019-06-10T01:29:37.065Z,100117.11
2019-06-10T01:34:42.109Z,100110.36
2019-06-10T01:39:47.323Z,100106.89
2019-06-10T01:44:52.451Z,100118.91
2019-06-10T01:49:57.573Z,100100.72
2019-06-10T01:55:02.690Z,100091.95
2019-06-10T02:00:11.942Z,100078.20
2019-06-10T02:05:16.669Z,100085.35
2019-06-10T02:10:23.126Z,100083.36
2019-06-10T02:15:28.392Z,100086.23
2019-06-10T02:20:33.659Z,100085.76
2019-06-10T02:25:41.065Z,100080.30
2019-06-10T02:30:51.876Z,100044.00
2019-06-10T02:35:53.866Z,100019.94
2019-06-10T02:40:59.291Z,100028.80
2019-06-10T02:46:04.930Z,100035.13
2019-06-10T02:51:13.083Z,100019.08
2019-06-10T02:56:17.775Z,100005.23
2019-06-10T03:01:31.882Z,100006.23
2019-06-10T03:06:36.257Z,100005.97
2019-06-10T03:11:37.787Z,100004.88
2019-06-10T03:16:49.691Z,100002.11
2019-06-10T03:21:54.773Z,99991.78
2019-06-10T03:26:59.874Z,99985.45
2019-06-10T03:32:05.733Z,99991.68
2019-06-10T03:37:12.906Z,99994.47
2019-06-10T03:42:18.775Z,99993.39
2019-06-10T03:47:25.904Z,100007.70
2019-06-10T03:52:32.449Z,100012.75
2019-06-10T03:57:37.720Z,100014.32
2019-06-10T04:02:43.216Z,100016.19
2019-06-10T04:07:48.240Z,100027.30
2019-06-10T04:12:53.316Z,100016.37
2019-06-10T04:17:58.414Z,100007.23
2019-06-10T04:23:04.330Z,99995.09
2019-06-10T04:28:09.522Z,100003.53
2019-06-10T04:33:14.596Z,100021.06
2019-06-10T04:38:20.956Z,100003.53
2019-06-10T04:43:27.730Z,99992.04
2019-06-10T04:48:34.058Z,99971.73
2019-06-10T04:53:40.474Z,99999.32
2019-06-10T04:58:46.031Z,100006.22
2019-06-10T05:03:52.661Z,99998.34
2019-06-10T05:08:57.849Z,99983.77
2019-06-10T05:14:03.030Z,99973.52
2019-06-10T05:19:09.242Z,99983.91
2019-06-10T05:24:14.343Z,99980.41
2019-06-10T05:29:20.267Z,99986.48
2019-06-10T05:34:27.196Z,99982.80
2019-06-10T05:39:35.131Z,99990.27
2019-06-10T05:44:40.087Z,99999.94
2019-06-10T05:49:45.177Z,99987.28
2019-06-10T05:54:52.132Z,99982.47
2019-06-10T05:59:57.763Z,99986.69
2019-06-10T06:05:02.888Z,99981.50
2019-06-10T06:10:08.601Z,99975.55
2019-06-10T06:15:13.832Z,99971.77
2019-06-10T06:20:19.230Z,99964.54
2019-06-10T06:25:24.339Z,99964.52
2019-06-10T06:30:30.182Z,99969.44
2019-06-10T06:35:40.898Z,99969.00
2019-06-10T06:40:43.606Z,99972.92
2019-06-10T06:45:48.742Z,99969.06
2019-06-10T06:51:04.586Z,99968.92
2019-06-10T06:56:03.453Z,99972.83
2019-06-10T07:01:10.955Z,99970.51
2019-06-10T07:06:15.580Z,99968.03
2019-06-10T07:11:22.404Z,99966.55
2019-06-10T07:16:27.738Z,99958.44
2019-06-10T07:21:36.188Z,99974.08
2019-06-10T07:26:45.330Z,99957.83
2019-06-10T07:31:50.119Z,99959.17
2019-06-10T07:36:55.427Z,99956.36
2019-06-10T07:42:03.026Z,99952.16
2019-06-10T07:47:09.094Z,99952.88
2019-06-10T07:52:19.407Z,99945.52
2019-06-10T07:57:22.628Z,99934.92
2019-06-10T08:02:27.866Z,99939.91
2019-06-10T08:07:33.877Z,99934.48
2019-06-10T08:12:41.829Z,99939.59
2019-06-10T08:17:48.250Z,99941.73
2019-06-10T08:22:57.858Z,99942.48
2019-06-10T08:28:02.974Z,99935.25
2019-06-10T08:33:09.580Z,99931.96
2019-06-10T08:38:14.654Z,99942.45
2019-06-10T08:43:22.444Z,99951.49
2019-06-10T08:48:27.239Z,99941.34
2019-06-10T08:53:32.953Z,99939.34
2019-06-10T08:58:40.311Z,99940.81
2019-06-10T09:03:49.007Z,99958.75
2019-06-10T09:08:54.543Z,99957.04
2019-06-10T09:14:02.385Z,99952.53
2019-06-10T09:19:07.898Z,99952.09
2019-06-10T09:24:13.065Z,99946.88
2019-06-10T09:29:18.333Z,99946.61
2019-06-10T09:34:23.909Z,99961.02
2019-06-10T09:39:29.201Z,99952.55
2019-06-10T09:44:34.287Z,99967.62
2019-06-10T09:49:42.382Z,99959.56
2019-06-10T09:54:50.840Z,99965.67
2019-06-10T09:59:56.580Z,99973.14
2019-06-10T10:05:08.788Z,99967.01
2019-06-10T10:10:15.585Z,99964.30
2019-06-10T10:15:29.887Z,99966.55
2019-06-10T10:20:28.468Z,99963.08
2019-06-10T10:25:33.635Z,99964.01
2019-06-10T10:30:42.498Z,99964.94
2019-06-10T10:35:48.037Z,99969.24
2019-06-10T10:40:58.582Z,99966.58
2019-06-10T10:46:06.353Z,99959.72
2019-06-10T10:51:13.342Z,99957.95
2019-06-10T10:56:18.786Z,99940.99
2019-06-10T11:01:24.214Z,99932.48
2019-06-10T11:06:29.386Z,99922.94
2019-06-10T11:11:34.596Z,99909.33
2019-06-10T11:16:39.800Z,99897.84
2019-06-10T11:21:45.315Z,99900.09
2019-06-10T11:26:53.257Z,99898.06
2019-06-10T11:31:58.663Z,99887.73
2019-06-10T11:37:04.331Z,99872.91
2019-06-10T11:42:13.290Z,99872.65
2019-06-10T11:47:18.527Z,99871.66
2019-06-10T11:52:25.068Z,99863.25
2019-06-10T11:57:32.943Z,99854.09
2019-06-10T12:02:37.963Z,99854.09
2019-06-10T12:07:43.614Z,99835.58
2019-06-10T12:12:48.965Z,99823.33
2019-06-10T12:18:00.815Z,99825.91
2019-06-10T12:23:04.403Z,99826.30
2019-06-10T12:28:08.328Z,99813.62
2019-06-10T12:33:21.262Z,99799.62
2019-06-10T12:38:22.752Z,99800.23
2019-06-10T12:43:27.382Z,99793.82
2019-06-10T12:48:34.355Z,99781.20
2019-06-10T12:53:39.717Z,99776.07
2019-06-10T12:58:44.992Z,99764.20
2019-06-10T13:03:52.853Z,99751.34
2019-06-10T13:08:58.061Z,99753.94
2019-06-10T13:14:06.484Z,99753.34
2019-06-10T13:19:12.380Z,99752.09
2019-06-10T13:24:17.000Z,99729.50
2019-06-10T13:29:23.953Z,99724.97
2019-06-10T13:34:27.905Z,99712.08
2019-06-10T13:39:32.617Z,99713.59
2019-06-10T13:44:36.830Z,99707.88
2019-06-10T13:49:42.877Z,99712.05
2019-06-10T13:54:46.675Z,99697.06
2019-06-10T13:59:52.027Z,99694.93
2019-06-10T14:04:56.343Z,99698.28
2019-06-10T14:10:03.039Z,99692.38
2019-06-10T14:15:09.345Z,99685.18
2019-06-10T14:20:15.475Z,99678.02
2019-06-10T14:25:23.293Z,99677.23
2019-06-10T14:30:29.011Z,99667.55
2019-06-10T14:35:34.153Z,99667.77
2019-06-10T14:40:39.298Z,99668.03
2019-06-10T14:45:44.447Z,99674.73
2019-06-10T14:50:49.312Z,99664.94
2019-06-10T14:55:53.670Z,99669.39
2019-06-10T15:00:57.873Z,99663.98
2019-06-10T15:06:03.148Z,99663.75
2019-06-10T15:11:07.586Z,99652.16
2019-06-10T15:16:12.409Z,99645.33
2019-06-10T15:21:17.556Z,99630.02
2019-06-10T15:26:21.541Z,99608.98
2019-06-10T15:31:25.968Z,99602.19
2019-06-10T15:36:32.519Z,99592.57
2019-06-10T15:41:35.747Z,99596.45
2019-06-10T15:46:43.047Z,99597.41
2019-06-10T15:51:48.885Z,99589.97
2019-06-10T15:56:56.567Z,99591.91
2019-06-10T16:02:02.573Z,99591.80
2019-06-10T16:07:09.093Z,99586.05
2019-06-10T16:12:16.344Z,99600.64
2019-06-10T16:17:21.162Z,99606.45
2019-06-10T16:22:27.688Z,99606.09
2019-06-10T16:27:46.285Z,99597.75
2019-06-10T16:32:39.559Z,99593.27
2019-06-10T16:37:44.719Z,99598.47
2019-06-10T16:42:49.974Z,99606.67
2019-06-10T16:47:55.700Z,99606.24
2019-06-10T16:53:03.006Z,99603.95
2019-06-10T16:58:08.527Z,99612.13
2019-06-10T17:03:13.908Z,99615.27
2019-06-10T17:08:20.059Z,99616.09
2019-06-10T17:13:27.277Z,99615.41
2019-06-10T17:18:33.915Z,99631.45
2019-06-10T17:23:39.076Z,99615.45
2019-06-10T17:28:44.628Z,99616.87
2019-06-10T17:33:49.757Z,99606.65
2019-06-10T17:38:54.941Z,99598.46
2019-06-10T17:44:02.688Z,99580.43
2019-06-10T17:49:08.953Z,99581.09
2019-06-10T17:54:14.205Z,99582.11
2019-06-10T17:59:22.477Z,99582.53
2019-06-10T18:04:27.377Z,99596.18
2019-06-10T18:09:35.419Z,99570.34
2019-06-10T18:14:39.692Z,99567.03
2019-06-10T18:19:44.848Z,99581.27
2019-06-10T18:24:52.237Z,99570.39
2019-06-10T18:29:58.489Z,99568.09
2019-06-10T18:35:03.852Z,99565.22
2019-06-10T18:40:09.431Z,99535.45
2019-06-10T18:45:15.172Z,99519.75
2019-06-10T18:50:22.110Z,99523.86
2019-06-10T18:55:37.248Z,99586.95
2019-06-10T19:00:56.970Z,99607.42
2019-06-10T19:05:47.321Z,99588.98
2019-06-10T19:10:53.563Z,99634.67
2019-06-10T19:15:59.010Z,99655.29
2019-06-10T19:21:07.705Z,99679.16
2019-06-10T19:26:13.473Z,99693.19
2019-06-10T19:31:18.392Z,99717.46
2019-06-10T19:36:23.724Z,99699.06
2019-06-10T19:41:28.816Z,99696.04
2019-06-10T19:46:34.267Z,99678.14
2019-06-10T19:51:44.852Z,99655.39
2019-06-10T19:56:48.797Z,99664.18
2019-06-10T20:01:54.292Z,99647.49
2019-06-10T20:07:02.246Z,99607.06
2019-06-10T20:12:07.161Z,99543.25
2019-06-10T20:17:13.390Z,99508.41
2019-06-10T20:22:19.483Z,99532.20
2019-06-10T20:27:24.814Z,99513.80
2019-06-10T20:32:29.944Z,99500.42
2019-06-10T20:37:35.069Z,99513.95
2019-06-10T20:42:40.287Z,99510.47
2019-06-10T20:47:48.005Z,99505.61
2019-06-10T20:52:52.559Z,99508.33
2019-06-10T20:58:03.498Z,99515.59
2019-06-10T21:03:05.015Z,99500.19
2019-06-10T21:08:12.247Z,99476.38
2019-06-10T21:13:17.044Z,99471.28
2019-06-10T21:18:22.614Z,99466.66
2019-06-10T21:23:27.937Z,99470.83
2019-06-10T21:28:34.766Z,99492.20
2019-06-10T21:33:43.791Z,99523.11
2019-06-10T21:38:49.359Z,99562.81
2019-06-10T21:43:59.103Z,99571.44
2019-06-10T21:49:00.769Z,99585.02
2019-06-10T21:54:07.384Z,99594.41
2019-06-10T21:59:12.707Z,99607.33
2019-06-10T22:04:19.238Z,99626.02
2019-06-10T22:09:24.639Z,99633.88
2019-06-10T22:14:30.124Z,99633.88
2019-06-10T22:19:35.183Z,99638.27
2019-06-10T22:24:42.327Z,99618.95
2019-06-10T22:29:47.138Z,99609.06
2019-06-10T22:34:54.164Z,99598.46
2019-06-10T22:39:59.514Z,99572.22
2019-06-10T22:45:05.255Z,99553.20
2019-06-10T22:50:12.974Z,99548.65
2019-06-10T22:55:18.022Z,99556.91
2019-06-10T23:00:23.123Z,99559.17
2019-06-10T23:05:28.634Z,99565.72
2019-06-10T23:10:33.884Z,99551.83
2019-06-10T23:15:42.656Z,99536.52
2019-06-10T23:20:47.176Z,99546.29
2019-06-10T23:25:52.279Z,99537.95
2019-06-10T23:31:00.100Z,99538.69
2019-06-10T23:36:05.157Z,99542.31
2019-06-10T23:41:10.359Z,99560.63
2019-06-10T23:46:15.818Z,99568.35
2019-06-10T23:51:22.802Z,99587.05
2019-06-10T23:56:28.031Z,99605.81
